sensor_id;sensor_type;location;lat;lon;timestamp;P1;durP1;ratioP1;P2;durP2;ratioP2
53875;SDS011;39789;53.216;5.624;2023-10-19T00:03:06;25.17;;;19.42;;
53875;SDS011;39789;53.216;5.624;2023-10-19T00:05:33;23.85;;;20.20;;
53875;SDS011;39789;53.216;5.624;2023-10-19T00:07:59;23.42;;;20.08;;
53875;SDS011;39789;53.216;5.624;2023-10-19T00:10:30;22.80;;;20.30;;
53875;SDS011;39789;53.216;5.624;2023-10-19T00:13:00;27.40;;;21.15;;
53875;SDS011;39789;53.216;5.624;2023-10-19T00:15:31;28.27;;;20.80;;
53875;SDS011;39789;53.216;5.624;2023-10-19T00:17:59;29.73;;;22.90;;
53875;SDS011;39789;53.216;5.624;2023-10-19T00:20:32;29.38;;;23.33;;
53875;SDS011;39789;53.216;5.624;2023-10-19T00:23:13;28.33;;;22.92;;
53875;SDS011;39789;53.216;5.624;2023-10-19T00:25:42;27.70;;;23.92;;
53875;SDS011;39789;53.216;5.624;2023-10-19T00:28:09;27.55;;;23.30;;
53875;SDS011;39789;53.216;5.624;2023-10-19T00:30:37;29.73;;;24.73;;
53875;SDS011;39789;53.216;5.624;2023-10-19T00:33:04;28.88;;;25.23;;
53875;SDS011;39789;53.216;5.624;2023-10-19T00:35:40;34.13;;;25.38;;
53875;SDS011;39789;53.216;5.624;2023-10-19T00:38:12;29.92;;;25.60;;
53875;SDS011;39789;53.216;5.624;2023-10-19T00:41:10;29.33;;;25.15;;
53875;SDS011;39789;53.216;5.624;2023-10-19T00:43:36;32.17;;;26.27;;
53875;SDS011;39789;53.216;5.624;2023-10-19T00:46:10;31.55;;;26.33;;
53875;SDS011;39789;53.216;5.624;2023-10-19T00:51:14;35.42;;;27.70;;
53875;SDS011;39789;53.216;5.624;2023-10-19T00:53:57;34.55;;;27.45;;
53875;SDS011;39789;53.216;5.624;2023-10-19T00:57:04;32.58;;;27.58;;
53875;SDS011;39789;53.216;5.624;2023-10-19T00:59:39;30.92;;;26.02;;
53875;SDS011;39789;53.216;5.624;2023-10-19T01:02:29;31.25;;;26.02;;
53875;SDS011;39789;53.216;5.624;2023-10-19T01:04:55;36.28;;;28.45;;
53875;SDS011;39789;53.216;5.624;2023-10-19T01:07:26;31.83;;;27.40;;
53875;SDS011;39789;53.216;5.624;2023-10-19T01:09:56;31.88;;;26.48;;
53875;SDS011;39789;53.216;5.624;2023-10-19T01:12:59;37.92;;;32.55;;
53875;SDS011;39789;53.216;5.624;2023-10-19T01:15:24;33.90;;;28.02;;
53875;SDS011;39789;53.216;5.624;2023-10-19T01:17:53;35.28;;;28.48;;
53875;SDS011;39789;53.216;5.624;2023-10-19T01:20:23;35.75;;;28.67;;
53875;SDS011;39789;53.216;5.624;2023-10-19T01:23:00;35.70;;;28.05;;
53875;SDS011;39789;53.216;5.624;2023-10-19T01:25:45;35.45;;;28.05;;
53875;SDS011;39789;53.216;5.624;2023-10-19T01:31:06;33.45;;;28.10;;
53875;SDS011;39789;53.216;5.624;2023-10-19T01:33:32;36.88;;;30.02;;
53875;SDS011;39789;53.216;5.624;2023-10-19T01:36:00;39.75;;;32.08;;
53875;SDS011;39789;53.216;5.624;2023-10-19T01:38:39;35.88;;;29.75;;
53875;SDS011;39789;53.216;5.624;2023-10-19T01:41:06;37.22;;;30.65;;
53875;SDS011;39789;53.216;5.624;2023-10-19T01:43:39;42.50;;;34.20;;
53875;SDS011;39789;53.216;5.624;2023-10-19T01:46:06;38.78;;;31.45;;
53875;SDS011;39789;53.216;5.624;2023-10-19T01:48:37;35.10;;;30.38;;
53875;SDS011;39789;53.216;5.624;2023-10-19T01:51:07;36.15;;;29.48;;
53875;SDS011;39789;53.216;5.624;2023-10-19T01:53:38;41.63;;;33.38;;
53875;SDS011;39789;53.216;5.624;2023-10-19T01:56:09;41.10;;;33.22;;
53875;SDS011;39789;53.216;5.624;2023-10-19T01:58:36;40.50;;;32.22;;
53875;SDS011;39789;53.216;5.624;2023-10-19T02:01:05;40.08;;;33.17;;
53875;SDS011;39789;53.216;5.624;2023-10-19T02:03:44;39.85;;;32.65;;
53875;SDS011;39789;53.216;5.624;2023-10-19T02:06:10;38.47;;;32.53;;
53875;SDS011;39789;53.216;5.624;2023-10-19T02:08:47;42.00;;;34.38;;
53875;SDS011;39789;53.216;5.624;2023-10-19T02:11:24;38.67;;;31.80;;
53875;SDS011;39789;53.216;5.624;2023-10-19T02:13:52;38.17;;;30.88;;
53875;SDS011;39789;53.216;5.624;2023-10-19T02:16:19;35.72;;;29.50;;
53875;SDS011;39789;53.216;5.624;2023-10-19T02:18:50;43.63;;;33.90;;
53875;SDS011;39789;53.216;5.624;2023-10-19T02:21:16;36.95;;;29.10;;
53875;SDS011;39789;53.216;5.624;2023-10-19T02:23:52;38.95;;;31.10;;
53875;SDS011;39789;53.216;5.624;2023-10-19T02:26:18;37.05;;;30.90;;
53875;SDS011;39789;53.216;5.624;2023-10-19T02:28:48;37.58;;;29.38;;
53875;SDS011;39789;53.216;5.624;2023-10-19T02:31:17;34.67;;;29.15;;
53875;SDS011;39789;53.216;5.624;2023-10-19T02:33:47;35.25;;;28.98;;
53875;SDS011;39789;53.216;5.624;2023-10-19T02:36:25;34.20;;;27.30;;
53875;SDS011;39789;53.216;5.624;2023-10-19T02:39:02;33.17;;;27.85;;
53875;SDS011;39789;53.216;5.624;2023-10-19T02:41:36;35.15;;;27.70;;
53875;SDS011;39789;53.216;5.624;2023-10-19T02:44:13;33.03;;;26.02;;
53875;SDS011;39789;53.216;5.624;2023-10-19T02:46:43;31.45;;;25.95;;
53875;SDS011;39789;53.216;5.624;2023-10-19T02:49:11;32.25;;;26.10;;
53875;SDS011;39789;53.216;5.624;2023-10-19T02:51:38;28.02;;;23.85;;
53875;SDS011;39789;53.216;5.624;2023-10-19T02:54:06;31.48;;;25.00;;
53875;SDS011;39789;53.216;5.624;2023-10-19T02:56:33;27.67;;;22.23;;
53875;SDS011;39789;53.216;5.624;2023-10-19T02:59:02;28.58;;;24.13;;
53875;SDS011;39789;53.216;5.624;2023-10-19T03:01:31;29.30;;;24.40;;
53875;SDS011;39789;53.216;5.624;2023-10-19T03:03:59;24.70;;;20.40;;
53875;SDS011;39789;53.216;5.624;2023-10-19T03:06:26;26.63;;;21.30;;
53875;SDS011;39789;53.216;5.624;2023-10-19T03:08:59;24.45;;;20.52;;
53875;SDS011;39789;53.216;5.624;2023-10-19T03:11:47;24.10;;;19.48;;
53875;SDS011;39789;53.216;5.624;2023-10-19T03:14:17;25.60;;;21.23;;
53875;SDS011;39789;53.216;5.624;2023-10-19T03:16:43;25.38;;;20.38;;
53875;SDS011;39789;53.216;5.624;2023-10-19T03:19:10;27.20;;;21.35;;
53875;SDS011;39789;53.216;5.624;2023-10-19T03:21:38;22.92;;;19.17;;
53875;SDS011;39789;53.216;5.624;2023-10-19T03:24:10;23.48;;;20.52;;
53875;SDS011;39789;53.216;5.624;2023-10-19T03:26:38;27.30;;;21.13;;
53875;SDS011;39789;53.216;5.624;2023-10-19T03:29:08;22.95;;;19.10;;
53875;SDS011;39789;53.216;5.624;2023-10-19T03:31:37;25.40;;;19.58;;
53875;SDS011;39789;53.216;5.624;2023-10-19T03:34:10;23.90;;;20.15;;
53875;SDS011;39789;53.216;5.624;2023-10-19T03:36:38;21.30;;;18.58;;
53875;SDS011;39789;53.216;5.624;2023-10-19T03:39:05;25.50;;;20.67;;
53875;SDS011;39789;53.216;5.624;2023-10-19T03:41:38;23.05;;;19.50;;
53875;SDS011;39789;53.216;5.624;2023-10-19T03:44:09;22.17;;;18.55;;
53875;SDS011;39789;53.216;5.624;2023-10-19T03:46:40;24.08;;;20.55;;
53875;SDS011;39789;53.216;5.624;2023-10-19T03:49:18;31.25;;;22.40;;
53875;SDS011;39789;53.216;5.624;2023-10-19T03:51:45;21.75;;;18.95;;
53875;SDS011;39789;53.216;5.624;2023-10-19T03:54:46;23.73;;;19.08;;
53875;SDS011;39789;53.216;5.624;2023-10-19T03:57:14;19.25;;;17.20;;
53875;SDS011;39789;53.216;5.624;2023-10-19T03:59:44;20.63;;;18.00;;
53875;SDS011;39789;53.216;5.624;2023-10-19T04:02:10;21.85;;;18.38;;
53875;SDS011;39789;53.216;5.624;2023-10-19T04:04:41;22.30;;;17.05;;
53875;SDS011;39789;53.216;5.624;2023-10-19T04:07:11;19.08;;;16.60;;
53875;SDS011;39789;53.216;5.624;2023-10-19T04:09:49;18.35;;;16.38;;
53875;SDS011;39789;53.216;5.624;2023-10-19T04:12:24;19.55;;;15.55;;
53875;SDS011;39789;53.216;5.624;2023-10-19T04:14:50;18.60;;;16.48;;
53875;SDS011;39789;53.216;5.624;2023-10-19T04:17:16;18.17;;;15.85;;
53875;SDS011;39789;53.216;5.624;2023-10-19T04:19:46;16.92;;;15.13;;
53875;SDS011;39789;53.216;5.624;2023-10-19T04:22:13;17.27;;;14.98;;
53875;SDS011;39789;53.216;5.624;2023-10-19T04:24:47;17.98;;;15.75;;
53875;SDS011;39789;53.216;5.624;2023-10-19T04:27:14;18.00;;;15.45;;
53875;SDS011;39789;53.216;5.624;2023-10-19T04:29:40;18.20;;;16.30;;
53875;SDS011;39789;53.216;5.624;2023-10-19T04:32:08;15.77;;;14.07;;
53875;SDS011;39789;53.216;5.624;2023-10-19T04:34:39;18.33;;;15.13;;
53875;SDS011;39789;53.216;5.624;2023-10-19T04:37:05;16.67;;;14.30;;
53875;SDS011;39789;53.216;5.624;2023-10-19T04:39:32;15.75;;;13.93;;
53875;SDS011;39789;53.216;5.624;2023-10-19T04:41:59;16.13;;;14.45;;
53875;SDS011;39789;53.216;5.624;2023-10-19T04:44:25;20.63;;;17.25;;
53875;SDS011;39789;53.216;5.624;2023-10-19T04:46:50;16.25;;;14.40;;
53875;SDS011;39789;53.216;5.624;2023-10-19T04:49:16;19.80;;;15.15;;
53875;SDS011;39789;53.216;5.624;2023-10-19T04:51:42;18.00;;;15.35;;
53875;SDS011;39789;53.216;5.624;2023-10-19T04:54:08;16.35;;;14.15;;
53875;SDS011;39789;53.216;5.624;2023-10-19T04:56:34;16.63;;;14.75;;
53875;SDS011;39789;53.216;5.624;2023-10-19T04:59:03;16.33;;;14.60;;
53875;SDS011;39789;53.216;5.624;2023-10-19T05:01:29;17.15;;;15.32;;
53875;SDS011;39789;53.216;5.624;2023-10-19T05:03:58;21.08;;;17.38;;
53875;SDS011;39789;53.216;5.624;2023-10-19T05:06:23;17.25;;;15.43;;
53875;SDS011;39789;53.216;5.624;2023-10-19T05:08:49;18.92;;;15.98;;
53875;SDS011;39789;53.216;5.624;2023-10-19T05:11:14;19.17;;;16.52;;
53875;SDS011;39789;53.216;5.624;2023-10-19T05:13:40;16.25;;;14.07;;
53875;SDS011;39789;53.216;5.624;2023-10-19T05:16:06;17.50;;;14.32;;
53875;SDS011;39789;53.216;5.624;2023-10-19T05:18:32;15.32;;;12.75;;
53875;SDS011;39789;53.216;5.624;2023-10-19T05:20:59;15.55;;;12.80;;
53875;SDS011;39789;53.216;5.624;2023-10-19T05:23:26;14.95;;;13.35;;
53875;SDS011;39789;53.216;5.624;2023-10-19T05:25:53;15.55;;;13.63;;
53875;SDS011;39789;53.216;5.624;2023-10-19T05:28:24;14.43;;;12.60;;
53875;SDS011;39789;53.216;5.624;2023-10-19T05:30:50;16.30;;;14.27;;
53875;SDS011;39789;53.216;5.624;2023-10-19T05:33:16;20.52;;;16.55;;
53875;SDS011;39789;53.216;5.624;2023-10-19T05:35:46;15.95;;;14.25;;
53875;SDS011;39789;53.216;5.624;2023-10-19T05:38:12;17.45;;;14.77;;
53875;SDS011;39789;53.216;5.624;2023-10-19T05:40:38;17.60;;;15.20;;
53875;SDS011;39789;53.216;5.624;2023-10-19T05:43:04;16.20;;;14.50;;
53875;SDS011;39789;53.216;5.624;2023-10-19T05:45:30;16.73;;;14.90;;
53875;SDS011;39789;53.216;5.624;2023-10-19T05:47:57;18.13;;;15.38;;
53875;SDS011;39789;53.216;5.624;2023-10-19T05:50:23;16.95;;;14.73;;
53875;SDS011;39789;53.216;5.624;2023-10-19T05:52:49;17.25;;;15.45;;
53875;SDS011;39789;53.216;5.624;2023-10-19T05:55:14;18.05;;;16.15;;
53875;SDS011;39789;53.216;5.624;2023-10-19T05:57:41;18.70;;;16.33;;
53875;SDS011;39789;53.216;5.624;2023-10-19T06:00:07;16.90;;;15.18;;
53875;SDS011;39789;53.216;5.624;2023-10-19T06:02:38;20.05;;;17.08;;
53875;SDS011;39789;53.216;5.624;2023-10-19T06:05:10;19.75;;;16.75;;
53875;SDS011;39789;53.216;5.624;2023-10-19T06:07:46;17.80;;;15.90;;
53875;SDS011;39789;53.216;5.624;2023-10-19T06:10:13;19.20;;;16.75;;
53875;SDS011;39789;53.216;5.624;2023-10-19T06:12:44;22.35;;;17.98;;
53875;SDS011;39789;53.216;5.624;2023-10-19T06:15:11;18.98;;;16.83;;
53875;SDS011;39789;53.216;5.624;2023-10-19T06:17:38;20.10;;;17.60;;
53875;SDS011;39789;53.216;5.624;2023-10-19T06:20:06;20.38;;;17.67;;
53875;SDS011;39789;53.216;5.624;2023-10-19T06:22:34;19.88;;;17.45;;
53875;SDS011;39789;53.216;5.624;2023-10-19T06:25:01;20.85;;;17.65;;
53875;SDS011;39789;53.216;5.624;2023-10-19T06:27:29;24.83;;;17.50;;
53875;SDS011;39789;53.216;5.624;2023-10-19T06:29:56;20.08;;;16.77;;
53875;SDS011;39789;53.216;5.624;2023-10-19T06:32:22;19.85;;;16.88;;
53875;SDS011;39789;53.216;5.624;2023-10-19T06:34:47;23.50;;;17.92;;
53875;SDS011;39789;53.216;5.624;2023-10-19T06:37:13;19.85;;;17.42;;
53875;SDS011;39789;53.216;5.624;2023-10-19T06:39:39;20.83;;;18.50;;
53875;SDS011;39789;53.216;5.624;2023-10-19T06:42:08;22.33;;;19.92;;
53875;SDS011;39789;53.216;5.624;2023-10-19T06:44:40;20.67;;;18.00;;
53875;SDS011;39789;53.216;5.624;2023-10-19T06:47:07;20.13;;;17.60;;
53875;SDS011;39789;53.216;5.624;2023-10-19T06:49:33;21.02;;;17.77;;
53875;SDS011;39789;53.216;5.624;2023-10-19T06:51:59;20.48;;;17.77;;
53875;SDS011;39789;53.216;5.624;2023-10-19T06:54:25;19.77;;;16.55;;
53875;SDS011;39789;53.216;5.624;2023-10-19T06:56:52;20.67;;;18.33;;
53875;SDS011;39789;53.216;5.624;2023-10-19T06:59:18;21.20;;;17.98;;
53875;SDS011;39789;53.216;5.624;2023-10-19T07:01:44;23.50;;;19.38;;
53875;SDS011;39789;53.216;5.624;2023-10-19T07:04:11;20.92;;;17.63;;
53875;SDS011;39789;53.216;5.624;2023-10-19T07:06:38;21.05;;;18.13;;
53875;SDS011;39789;53.216;5.624;2023-10-19T07:09:04;24.42;;;20.08;;
53875;SDS011;39789;53.216;5.624;2023-10-19T07:11:31;24.80;;;19.88;;
53875;SDS011;39789;53.216;5.624;2023-10-19T07:13:58;22.17;;;19.67;;
53875;SDS011;39789;53.216;5.624;2023-10-19T07:16:25;24.23;;;19.55;;
53875;SDS011;39789;53.216;5.624;2023-10-19T07:18:51;23.83;;;20.30;;
53875;SDS011;39789;53.216;5.624;2023-10-19T07:21:18;22.98;;;19.58;;
53875;SDS011;39789;53.216;5.624;2023-10-19T07:23:44;20.58;;;17.77;;
53875;SDS011;39789;53.216;5.624;2023-10-19T07:26:10;21.92;;;19.05;;
53875;SDS011;39789;53.216;5.624;2023-10-19T07:28:39;22.83;;;19.02;;
53875;SDS011;39789;53.216;5.624;2023-10-19T07:31:05;22.73;;;20.05;;
53875;SDS011;39789;53.216;5.624;2023-10-19T07:33:37;22.75;;;19.42;;
53875;SDS011;39789;53.216;5.624;2023-10-19T07:36:11;22.95;;;20.13;;
53875;SDS011;39789;53.216;5.624;2023-10-19T07:38:39;25.27;;;20.55;;
53875;SDS011;39789;53.216;5.624;2023-10-19T07:41:05;23.08;;;20.02;;
53875;SDS011;39789;53.216;5.624;2023-10-19T07:43:31;29.63;;;22.25;;
53875;SDS011;39789;53.216;5.624;2023-10-19T07:45:56;23.65;;;19.98;;
53875;SDS011;39789;53.216;5.624;2023-10-19T07:48:22;26.50;;;20.88;;
53875;SDS011;39789;53.216;5.624;2023-10-19T07:50:48;26.30;;;21.00;;
53875;SDS011;39789;53.216;5.624;2023-10-19T07:53:13;23.17;;;20.10;;
53875;SDS011;39789;53.216;5.624;2023-10-19T07:55:39;28.58;;;21.48;;
53875;SDS011;39789;53.216;5.624;2023-10-19T07:58:05;23.27;;;19.77;;
53875;SDS011;39789;53.216;5.624;2023-10-19T08:00:33;23.27;;;19.65;;
53875;SDS011;39789;53.216;5.624;2023-10-19T08:02:59;25.92;;;20.13;;
53875;SDS011;39789;53.216;5.624;2023-10-19T08:05:25;21.25;;;18.95;;
53875;SDS011;39789;53.216;5.624;2023-10-19T08:07:51;23.70;;;19.58;;
53875;SDS011;39789;53.216;5.624;2023-10-19T08:10:19;23.73;;;19.35;;
53875;SDS011;39789;53.216;5.624;2023-10-19T08:12:46;20.90;;;18.73;;
53875;SDS011;39789;53.216;5.624;2023-10-19T08:15:13;24.83;;;20.90;;
53875;SDS011;39789;53.216;5.624;2023-10-19T08:17:40;24.35;;;20.42;;
53875;SDS011;39789;53.216;5.624;2023-10-19T08:20:07;27.00;;;21.77;;
53875;SDS011;39789;53.216;5.624;2023-10-19T08:22:37;25.05;;;21.17;;
53875;SDS011;39789;53.216;5.624;2023-10-19T08:25:03;25.05;;;21.33;;
53875;SDS011;39789;53.216;5.624;2023-10-19T08:27:36;26.52;;;22.25;;
53875;SDS011;39789;53.216;5.624;2023-10-19T08:30:13;26.65;;;21.05;;
53875;SDS011;39789;53.216;5.624;2023-10-19T08:32:40;22.88;;;20.10;;
53875;SDS011;39789;53.216;5.624;2023-10-19T08:35:06;24.08;;;21.08;;
53875;SDS011;39789;53.216;5.624;2023-10-19T08:37:36;26.05;;;22.25;;
53875;SDS011;39789;53.216;5.624;2023-10-19T08:40:04;25.08;;;20.50;;
53875;SDS011;39789;53.216;5.624;2023-10-19T08:42:31;27.45;;;22.80;;
53875;SDS011;39789;53.216;5.624;2023-10-19T08:44:57;26.00;;;21.77;;
53875;SDS011;39789;53.216;5.624;2023-10-19T08:47:24;26.42;;;22.92;;
53875;SDS011;39789;53.216;5.624;2023-10-19T08:49:51;23.83;;;21.13;;
53875;SDS011;39789;53.216;5.624;2023-10-19T08:52:20;26.10;;;23.08;;
53875;SDS011;39789;53.216;5.624;2023-10-19T08:54:51;27.52;;;23.67;;
53875;SDS011;39789;53.216;5.624;2023-10-19T08:57:17;26.98;;;22.10;;
53875;SDS011;39789;53.216;5.624;2023-10-19T08:59:43;33.03;;;24.77;;
53875;SDS011;39789;53.216;5.624;2023-10-19T09:02:11;29.08;;;24.35;;
53875;SDS011;39789;53.216;5.624;2023-10-19T09:04:41;30.05;;;24.48;;
53875;SDS011;39789;53.216;5.624;2023-10-19T09:07:08;33.47;;;24.48;;
53875;SDS011;39789;53.216;5.624;2023-10-19T09:09:36;29.98;;;22.77;;
53875;SDS011;39789;53.216;5.624;2023-10-19T09:12:06;27.13;;;22.65;;
53875;SDS011;39789;53.216;5.624;2023-10-19T09:14:36;26.17;;;22.52;;
53875;SDS011;39789;53.216;5.624;2023-10-19T09:17:06;27.67;;;21.75;;
53875;SDS011;39789;53.216;5.624;2023-10-19T09:19:39;25.80;;;21.65;;
53875;SDS011;39789;53.216;5.624;2023-10-19T09:22:09;25.08;;;20.90;;
53875;SDS011;39789;53.216;5.624;2023-10-19T09:24:46;28.25;;;23.60;;
53875;SDS011;39789;53.216;5.624;2023-10-19T09:27:16;29.30;;;22.98;;
53875;SDS011;39789;53.216;5.624;2023-10-19T09:29:42;27.25;;;22.42;;
53875;SDS011;39789;53.216;5.624;2023-10-19T09:32:08;28.60;;;23.02;;
53875;SDS011;39789;53.216;5.624;2023-10-19T09:34:35;25.10;;;22.48;;
53875;SDS011;39789;53.216;5.624;2023-10-19T09:37:01;28.02;;;22.77;;
53875;SDS011;39789;53.216;5.624;2023-10-19T09:39:28;29.95;;;25.05;;
53875;SDS011;39789;53.216;5.624;2023-10-19T09:42:02;27.92;;;23.55;;
53875;SDS011;39789;53.216;5.624;2023-10-19T09:44:42;26.52;;;22.15;;
53875;SDS011;39789;53.216;5.624;2023-10-19T09:47:13;26.98;;;21.67;;
53875;SDS011;39789;53.216;5.624;2023-10-19T09:49:42;29.10;;;23.65;;
53875;SDS011;39789;53.216;5.624;2023-10-19T09:52:09;26.10;;;21.63;;
53875;SDS011;39789;53.216;5.624;2023-10-19T09:57:10;23.42;;;20.30;;
53875;SDS011;39789;53.216;5.624;2023-10-19T09:59:42;26.25;;;21.95;;
53875;SDS011;39789;53.216;5.624;2023-10-19T10:02:14;28.88;;;23.17;;
53875;SDS011;39789;53.216;5.624;2023-10-19T10:04:43;27.42;;;21.23;;
53875;SDS011;39789;53.216;5.624;2023-10-19T10:07:13;27.73;;;22.35;;
53875;SDS011;39789;53.216;5.624;2023-10-19T10:09:41;25.23;;;20.70;;
53875;SDS011;39789;53.216;5.624;2023-10-19T10:17:33;27.90;;;22.23;;
53875;SDS011;39789;53.216;5.624;2023-10-19T10:22:42;22.95;;;19.70;;
53875;SDS011;39789;53.216;5.624;2023-10-19T10:25:09;25.02;;;21.23;;
53875;SDS011;39789;53.216;5.624;2023-10-19T10:27:53;26.38;;;21.38;;
53875;SDS011;39789;53.216;5.624;2023-10-19T10:30:20;26.10;;;20.73;;
53875;SDS011;39789;53.216;5.624;2023-10-19T10:32:46;23.10;;;20.67;;
53875;SDS011;39789;53.216;5.624;2023-10-19T10:38:06;23.85;;;20.38;;
53875;SDS011;39789;53.216;5.624;2023-10-19T10:40:45;23.45;;;20.88;;
53875;SDS011;39789;53.216;5.624;2023-10-19T10:43:15;23.95;;;21.00;;
53875;SDS011;39789;53.216;5.624;2023-10-19T10:45:42;23.15;;;20.50;;
53875;SDS011;39789;53.216;5.624;2023-10-19T10:48:15;23.25;;;19.80;;
53875;SDS011;39789;53.216;5.624;2023-10-19T10:50:44;21.52;;;19.27;;
53875;SDS011;39789;53.216;5.624;2023-10-19T10:53:12;22.48;;;19.33;;
53875;SDS011;39789;53.216;5.624;2023-10-19T10:55:39;21.02;;;18.30;;
53875;SDS011;39789;53.216;5.624;2023-10-19T10:58:04;21.50;;;18.15;;
53875;SDS011;39789;53.216;5.624;2023-10-19T11:00:30;21.65;;;18.55;;
53875;SDS011;39789;53.216;5.624;2023-10-19T11:03:03;20.58;;;17.45;;
53875;SDS011;39789;53.216;5.624;2023-10-19T11:05:30;21.75;;;18.52;;
53875;SDS011;39789;53.216;5.624;2023-10-19T11:08:10;20.33;;;18.10;;
53875;SDS011;39789;53.216;5.624;2023-10-19T11:10:41;19.55;;;17.45;;
53875;SDS011;39789;53.216;5.624;2023-10-19T11:13:10;20.83;;;18.20;;
53875;SDS011;39789;53.216;5.624;2023-10-19T11:15:38;20.38;;;17.48;;
53875;SDS011;39789;53.216;5.624;2023-10-19T11:18:12;19.77;;;17.67;;
53875;SDS011;39789;53.216;5.624;2023-10-19T11:21:06;21.05;;;18.80;;
53875;SDS011;39789;53.216;5.624;2023-10-19T11:26:03;20.10;;;17.38;;
53875;SDS011;39789;53.216;5.624;2023-10-19T11:28:30;18.67;;;16.67;;
53875;SDS011;39789;53.216;5.624;2023-10-19T11:31:10;20.77;;;16.15;;
53875;SDS011;39789;53.216;5.624;2023-10-19T11:33:41;19.27;;;15.80;;
53875;SDS011;39789;53.216;5.624;2023-10-19T11:36:08;15.20;;;13.60;;
53875;SDS011;39789;53.216;5.624;2023-10-19T11:38:37;17.80;;;15.85;;
53875;SDS011;39789;53.216;5.624;2023-10-19T11:41:08;17.10;;;15.30;;
53875;SDS011;39789;53.216;5.624;2023-10-19T11:43:36;20.58;;;18.52;;
53875;SDS011;39789;53.216;5.624;2023-10-19T11:46:02;21.70;;;18.50;;
53875;SDS011;39789;53.216;5.624;2023-10-19T11:48:29;19.58;;;17.20;;
53875;SDS011;39789;53.216;5.624;2023-10-19T11:50:56;23.42;;;20.65;;
53875;SDS011;39789;53.216;5.624;2023-10-19T11:53:22;22.30;;;20.05;;
53875;SDS011;39789;53.216;5.624;2023-10-19T11:55:48;23.48;;;20.98;;
53875;SDS011;39789;53.216;5.624;2023-10-19T11:58:14;26.10;;;23.20;;
53875;SDS011;39789;53.216;5.624;2023-10-19T12:00:40;26.25;;;23.13;;
53875;SDS011;39789;53.216;5.624;2023-10-19T12:03:09;25.23;;;22.55;;
53875;SDS011;39789;53.216;5.624;2023-10-19T12:05:35;27.77;;;22.92;;
53875;SDS011;39789;53.216;5.624;2023-10-19T12:08:02;27.55;;;24.10;;
53875;SDS011;39789;53.216;5.624;2023-10-19T12:10:28;25.88;;;22.48;;
53875;SDS011;39789;53.216;5.624;2023-10-19T12:13:06;31.25;;;25.85;;
53875;SDS011;39789;53.216;5.624;2023-10-19T12:15:33;28.20;;;25.30;;
53875;SDS011;39789;53.216;5.624;2023-10-19T12:17:59;27.75;;;24.77;;
53875;SDS011;39789;53.216;5.624;2023-10-19T12:20:24;28.05;;;25.02;;
53875;SDS011;39789;53.216;5.624;2023-10-19T12:22:51;26.73;;;22.98;;
53875;SDS011;39789;53.216;5.624;2023-10-19T12:25:19;27.52;;;24.13;;
53875;SDS011;39789;53.216;5.624;2023-10-19T12:27:46;25.38;;;22.58;;
53875;SDS011;39789;53.216;5.624;2023-10-19T12:30:12;23.65;;;20.90;;
53875;SDS011;39789;53.216;5.624;2023-10-19T12:32:47;21.27;;;19.08;;
53875;SDS011;39789;53.216;5.624;2023-10-19T12:35:14;21.38;;;19.20;;
53875;SDS011;39789;53.216;5.624;2023-10-19T12:37:40;20.45;;;18.15;;
53875;SDS011;39789;53.216;5.624;2023-10-19T12:40:16;21.88;;;19.15;;
53875;SDS011;39789;53.216;5.624;2023-10-19T12:42:54;20.92;;;18.33;;
53875;SDS011;39789;53.216;5.624;2023-10-19T12:45:27;20.92;;;17.85;;
53875;SDS011;39789;53.216;5.624;2023-10-19T12:47:52;23.58;;;21.08;;
53875;SDS011;39789;53.216;5.624;2023-10-19T12:50:18;22.50;;;19.77;;
53875;SDS011;39789;53.216;5.624;2023-10-19T12:52:51;22.60;;;19.60;;
53875;SDS011;39789;53.216;5.624;2023-10-19T12:55:17;21.83;;;19.30;;
53875;SDS011;39789;53.216;5.624;2023-10-19T12:57:43;21.73;;;19.48;;
53875;SDS011;39789;53.216;5.624;2023-10-19T13:00:09;21.48;;;19.17;;
53875;SDS011;39789;53.216;5.624;2023-10-19T13:02:53;23.33;;;19.15;;
53875;SDS011;39789;53.216;5.624;2023-10-19T13:05:33;20.30;;;17.98;;
53875;SDS011;39789;53.216;5.624;2023-10-19T13:07:59;19.27;;;17.38;;
53875;SDS011;39789;53.216;5.624;2023-10-19T13:10:29;18.63;;;16.73;;
53875;SDS011;39789;53.216;5.624;2023-10-19T13:13:05;20.02;;;17.00;;
53875;SDS011;39789;53.216;5.624;2023-10-19T13:15:33;17.58;;;15.82;;
53875;SDS011;39789;53.216;5.624;2023-10-19T13:18:00;16.08;;;14.48;;
53875;SDS011;39789;53.216;5.624;2023-10-19T13:20:30;16.65;;;14.95;;
53875;SDS011;39789;53.216;5.624;2023-10-19T13:25:32;18.08;;;14.38;;
53875;SDS011;39789;53.216;5.624;2023-10-19T13:28:08;18.35;;;15.85;;
53875;SDS011;39789;53.216;5.624;2023-10-19T13:30:41;15.23;;;13.68;;
53875;SDS011;39789;53.216;5.624;2023-10-19T13:33:15;14.70;;;13.25;;
53875;SDS011;39789;53.216;5.624;2023-10-19T13:35:43;14.30;;;12.88;;
53875;SDS011;39789;53.216;5.624;2023-10-19T13:38:10;14.93;;;13.43;;
53875;SDS011;39789;53.216;5.624;2023-10-19T13:40:37;13.60;;;12.15;;
53875;SDS011;39789;53.216;5.624;2023-10-19T13:43:03;14.48;;;12.98;;
53875;SDS011;39789;53.216;5.624;2023-10-19T13:45:31;15.27;;;13.63;;
53875;SDS011;39789;53.216;5.624;2023-10-19T13:47:58;14.48;;;12.95;;
53875;SDS011;39789;53.216;5.624;2023-10-19T13:50:24;15.02;;;13.38;;
53875;SDS011;39789;53.216;5.624;2023-10-19T13:52:52;15.02;;;13.43;;
53875;SDS011;39789;53.216;5.624;2023-10-19T13:55:21;15.60;;;14.00;;
53875;SDS011;39789;53.216;5.624;2023-10-19T13:57:48;15.88;;;14.18;;
53875;SDS011;39789;53.216;5.624;2023-10-19T14:00:14;16.25;;;14.45;;
53875;SDS011;39789;53.216;5.624;2023-10-19T14:02:55;18.42;;;16.10;;
53875;SDS011;39789;53.216;5.624;2023-10-19T14:05:22;17.20;;;15.30;;
53875;SDS011;39789;53.216;5.624;2023-10-19T14:07:49;18.08;;;15.82;;
53875;SDS011;39789;53.216;5.624;2023-10-19T14:10:16;20.08;;;17.95;;
53875;SDS011;39789;53.216;5.624;2023-10-19T14:12:44;23.50;;;18.40;;
53875;SDS011;39789;53.216;5.624;2023-10-19T14:15:15;22.75;;;19.40;;
53875;SDS011;39789;53.216;5.624;2023-10-19T14:17:45;23.98;;;18.98;;
53875;SDS011;39789;53.216;5.624;2023-10-19T14:20:12;23.02;;;19.30;;
53875;SDS011;39789;53.216;5.624;2023-10-19T14:22:42;26.73;;;20.98;;
53875;SDS011;39789;53.216;5.624;2023-10-19T14:27:39;24.98;;;22.10;;
53875;SDS011;39789;53.216;5.624;2023-10-19T14:30:10;27.13;;;21.48;;
53875;SDS011;39789;53.216;5.624;2023-10-19T14:32:39;24.58;;;20.52;;
53875;SDS011;39789;53.216;5.624;2023-10-19T14:35:07;28.65;;;22.42;;
53875;SDS011;39789;53.216;5.624;2023-10-19T14:37:36;29.20;;;23.27;;
53875;SDS011;39789;53.216;5.624;2023-10-19T14:40:04;28.75;;;23.67;;
53875;SDS011;39789;53.216;5.624;2023-10-19T14:42:34;27.10;;;22.85;;
53875;SDS011;39789;53.216;5.624;2023-10-19T14:45:26;31.02;;;25.35;;
53875;SDS011;39789;53.216;5.624;2023-10-19T14:47:51;25.80;;;21.98;;
53875;SDS011;39789;53.216;5.624;2023-10-19T14:50:22;26.20;;;21.08;;
53875;SDS011;39789;53.216;5.624;2023-10-19T14:52:49;25.15;;;21.52;;
53875;SDS011;39789;53.216;5.624;2023-10-19T14:55:17;25.58;;;20.85;;
53875;SDS011;39789;53.216;5.624;2023-10-19T14:57:44;25.67;;;22.45;;
53875;SDS011;39789;53.216;5.624;2023-10-19T15:00:11;21.70;;;19.42;;
53875;SDS011;39789;53.216;5.624;2023-10-19T15:03:03;22.17;;;19.60;;